Home > Products > Valid Products > MTR

000
SAUS41 KLWX 242005 COR
MTRRYT
METAR KRYT 241953Z AUTO 27007KT 10SM CLR 27/08 A2998 RMK AO2 SLP143
T02670078 $





000
SAUS41 KLWX 242003
MTRRYT
METAR KRYT 241953Z AUTO 27007KT 10SM CLR 27/08 A2998 RMK AO2 SLP143
T02670078 $





000
SAUS41 KLWX 241958 COR
MTRDMH
METAR KDMH 241954Z AUTO 28/08 A2995 RMK AO1 SLP141 T02780083





000
SAUS41 KLWX 241906 COR
MTRRSP
METAR KRSP 241954Z AUTO VRB05KT 10SM SCT070 BKN085 24/09 A3003 RMK
AO2 SLP166 P0001 T02390089 $





000
SAUS41 KLWX 241905 COR
MTRRYT
METAR KRYT 241853Z AUTO 00000KT 10SM FEW085 26/07 A2998 RMK AO2
SLP145 T02560072 $





000
SAUS41 KLWX 241904 COR
MTRRYT
METAR KRYT 241853Z AUTO 00000KT 10SM FEW085 26/07 A2998 RMK AO2
SLP145 T02560072 $





000
SAUS41 KLWX 241855
MTRNAK
METAR KNAK 241854Z AUTO 13009KT 8SM FEW090 24/12 A2996 RMK AO2
SLP147 T02390122





000
SAUS41 KLWX 241805 COR
MTRRSP
METAR KRSP 241854Z AUTO 31010G18KT 10SM FEW055 24/09 A3004 RMK AO2
SLP171 T02390094 $





000
SAUS41 KLWX 241805 COR
MTRRYT
METAR KRYT 241753Z AUTO 24007KT 180V280 10SM SCT070 25/11 A3000 RMK
AO2 SLP149 T02500106 10256 20161 58009 $





000
SAUS41 KLWX 241804
MTRRYT
METAR KRYT 241753Z AUTO 24007KT 180V280 10SM SCT070 25/11 A3000 RMK
AO2 SLP149 T02500106 10256 20161 58009 $





000
SAUS41 KLWX 241804 COR
MTRRYT
METAR KRYT 241753Z AUTO 24007KT 180V280 10SM SCT070 25/11 A3000 RMK
AO2 SLP149 T02500106 10256 20161 58009 $





000
SAUS41 KLWX 241758 COR
MTRDMH
METAR KDMH 241754Z AUTO 27/07 A2997 RMK AO1 SLP147 T02670067 10272
20183 58015





000
SAUS41 KLWX 241755
MTRNAK
METAR KNAK 241754Z AUTO 32008KT 10SM CLR 26/09 A2997 RMK AO2 SLP152
T02560089 10256 20167 58005





000
SAUS41 KLWX 241704 COR
MTRRYT
METAR KRYT 241653Z AUTO VRB04KT 10SM CLR 24/11 A3002 RMK AO2 SLP158
T02390111 $





000
SAUS41 KLWX 241655
MTRNAK
METAR KNAK 241654Z AUTO 34004KT 10SM CLR 24/10 A2999 RMK AO2 SLP157
T02390100





000
SAUS41 KLWX 241505 COR
MTRRSP
METAR KRSP 241554Z AUTO 32007KT 280V350 10SM CLR 19/11 A3006 RMK AO2
SLP178 P0001 T01890106 $





000
SAUS41 KLWX 241458 COR
MTRRYT
METAR KRYT 241453Z AUTO 27007KT 230V290 10SM CLR 21/12 A3002 RMK AO2
SLP162 T02060117 51008 $





000
SAUS41 KLWX 241458 COR
MTRDMH
METAR KDMH 241454Z AUTO 24/09 A3001 RMK AO1 SLP162 T02390089 50014





000
SAUS41 KLWX 241457
MTRRYT
METAR KRYT 241453Z AUTO 27007KT 230V290 10SM CLR 21/12 A3002 RMK AO2
SLP162 T02060117 51008 $





000
SAUS41 KLWX 241455
MTRNAK
METAR KNAK 241454Z AUTO 30008KT 10SM CLR 22/12 A2999 RMK AO2 SLP157
T02170117 51012





000
SAUS41 KLWX 241303
MTRRYT
METAR KRYT 241253Z AUTO VRB03KT 10SM CLR 18/10 A3002 RMK AO2 SLP162
T01780100 $





000
SAUS41 KLWX 241258 COR
MTRDMH
METAR KDMH 241254Z AUTO 20/11 A3000 RMK AO1 SLP159 T02000106





000
SAUS41 KLWX 241255
MTRNAK
METAR KNAK 241254Z AUTO 31007KT 10SM CLR 19/13 A2998 RMK AO2 SLP153
T01890128





000
SAUS41 KLWX 241156
MTRNAK
METAR KNAK 241154Z AUTO 30006KT 10SM CLR 16/12 A2995 RMK AO2 SLP144
60001 70010 T01610122 10167 20139 53014





000
SAUS41 KLWX 241105 COR
MTRRSP
METAR KRSP 241154Z AUTO VRB05KT 10SM CLR 13/09 A3001 RMK AO2 SLP163
60002 7//// T01280094 10133 20111 53013 $





000
SAUS41 KLWX 241104 COR
MTRRYT
METAR KRYT 241053Z AUTO VRB03KT 10SM CLR 14/11 A2998 RMK AO2 SLP149
T01440106 $





000
SAUS41 KLWX 241103 COR
MTRRYT
METAR KRYT 241053Z AUTO VRB03KT 10SM CLR 14/11 A2998 RMK AO2 SLP149
T01440106 $





000
SAUS41 KLWX 241058 COR
MTRDMH
METAR KDMH 241054Z AUTO 16/11 A2995 RMK AO1 SLP140 T01610111





000
SAUS41 KLWX 241005 COR
MTRRSP
METAR KRSP 241054Z AUTO 32007KT 290V360 10SM CLR 12/09 A2999 RMK AO2
SLP159 P0001 T01170094 $





000
SAUS41 KLWX 240955
MTRNAK
METAR KNAK 240954Z AUTO 30004KT 10SM FEW120 15/13 A2992 RMK AO2
SLP134 T01500128





000
SAUS41 KLWX 240758 COR
MTRDMH
METAR KDMH 240754Z AUTO 16/12 A2991 RMK AO1 SLP129 T01560122





000
SAUS41 KLWX 240705 COR
MTRRSP
METAR KRSP 240754Z AUTO 32007KT 10SM SCT100 13/09 A2997 RMK AO2
SLP146 P0001 T01330089 $





000
SAUS41 KLWX 240704 COR
MTRRYT
METAR KRYT 240653Z AUTO 00000KT 10SM SCT110 14/10 A2994 RMK AO2
SLP131 T01440100 $





000
SAUS41 KLWX 240703 COR
MTRRYT
METAR KRYT 240653Z AUTO 00000KT 10SM SCT110 14/10 A2994 RMK AO2
SLP131 T01440100 $





000
SAUS41 KLWX 240658 COR
MTRDMH
METAR KDMH 240654Z AUTO 16/12 A2993 RMK AO1 SLP133 T01560122





000
SAUS41 KLWX 240655
MTRNAK
METAR KNAK 240654Z AUTO 00000KT 10SM BKN080 BKN110 15/13 A2991 RMK
AO2 RAE02B18E31 SLP132 P0001 T01500133





000
SAUS41 KLWX 240605 COR
MTRRSP
METAR KRSP 240654Z AUTO 31008G14KT 10SM FEW100 12/09 A2997 RMK AO2
SLP148 T01220094 $





000
SAUS41 KLWX 240604 COR
MTRRYT
METAR KRYT 240553Z AUTO VRB03KT 10SM BKN100 15/10 A2994 RMK AO2
SLP131 T01500100 10161 20111 58005 $





000
SAUS41 KLWX 240603
MTRRYT
METAR KRYT 240553Z AUTO VRB03KT 10SM BKN100 15/10 A2994 RMK AO2
SLP131 T01500100 10161 20111 58005 $





000
SAUS41 KLWX 240558 COR
MTRDMH
METAR KDMH 240554Z AUTO 16/13 A2993 RMK AO1 SLP134 P0001 60002
T01560128 10172 20156 56008





000
SAUS41 KLWX 240555
MTRNAK
METAR KNAK 240554Z AUTO VRB03KT 10SM -RA FEW080 OVC100 16/13 A2992
RMK AO2 RAB50 SLP134 P0000 60000 T01560128 10161 20150 58006





000
SAUS41 KLWX 240505 COR
MTRRSP
METAR KRSP 240554Z AUTO 14004KT 10SM FEW080 13/09 A2998 RMK AO2
SLP152 60001 T01330089 10161 20128 51001 $





000
SAUS41 KLWX 240458 COR
MTRDMH
METAR KDMH 240454Z AUTO 16/13 A2994 RMK AO1 SLP137 T01610128
402330139





000
SAUS41 KLWX 240405 COR
MTRRSP
METAR KRSP 240454Z AUTO 30007KT 10SM FEW080 13/09 A2998 RMK AO2
SLP152 P0001 T01330089 402110111 $





000
SAUS41 KLWX 240355
MTRNAK
METAR KNAK 240354Z AUTO 29004KT 10SM SCT095 16/13 A2994 RMK AO2
SLP139 T01560133





000
SAUS41 KLWX 240203 COR
MTRRYT
METAR KRYT 240153Z AUTO 00000KT 10SM SCT095 BKN120 13/12 A2994 RMK
AO2 SLP136 T01330122 $





000
SAUS41 KLWX 240104 COR
MTRRYT
METAR KRYT 240053Z AUTO 00000KT 10SM FEW100 13/13 A2993 RMK AO2
SLP133 T01330128 $





000
SAUS41 KLWX 240103
MTRRYT
METAR KRYT 240053Z AUTO 00000KT 10SM FEW100 13/13 A2993 RMK AO2
SLP133 T01330128 $





000
SAUS41 KLWX 240058 COR
MTRDMH
METAR KDMH 240054Z AUTO 16/14 A2995 RMK AO1 SLP142 T01560139





000
SAUS41 KLWX 240055
MTRNAK
METAR KNAK 240054Z AUTO 00000KT 10SM FEW080 OVC110 15/13 A2994 RMK
AO2 SLP142 T01500133





000
SAUS41 KLWX 240005 COR
MTRRSP
METAR KRSP 240054Z AUTO 00000KT 10SM FEW065 BKN080 BKN110 14/11
A2997 RMK AO2 RAE03 SLP152 P0000 T01390106 $





000
SAUS41 KLWX 232358 COR
MTRDMH
METAR KDMH 232354Z AUTO 16/13 A2992 RMK AO1 SLP132 60038 T01560133
10228 20144 51014





000
SAUS41 KLWX 232355
MTRNAK
METAR KNAK 232354Z AUTO 00000KT 10SM SCT100 16/14 A2992 RMK AO2
SLP135 60009 T01560139 10211 20150 50015





000
SAUS41 KLWX 232306 COR
MTRRYT
METAR KRYT 232253Z AUTO VRB03KT 10SM BKN095 OVC110 14/13 A2992 RMK
AO2 SLP131 T01440128 $





000
SAUS41 KLWX 232305 COR
MTRRSP
METAR KRSP 232354Z AUTO VRB03KT 10SM -RA FEW075 OVC095 14/09 A2996
RMK AO2 RAE08B54 SLP147 6//// T01440094 10211 20122 51002 $





000
SAUS41 KLWX 232305 COR
MTRRYT
METAR KRYT 232253Z AUTO VRB03KT 10SM BKN095 OVC110 14/13 A2992 RMK
AO2 SLP131 T01440128 $





000
SAUS41 KLWX 232258 COR
MTRDMH
METAR KDMH 232254Z AUTO 15/13 A2992 RMK AO1 SLP131 P0011 T01500128





000
SAUS41 KLWX 232224
MTRNAK
SPECI KNAK 232223Z AUTO VRB05KT 2 1/2SM RA BR OVC065 15/13 A2992 RMK
AO2 WSHFT 2141 P0007 T01500128





000
SAUS41 KLWX 232146 COR
MTRRYT
SPECI KRYT 232136Z AUTO 00000KT 3SM -RA BR SCT055 OVC075 13/13 A2993
RMK AO2 TSE02 P0018 $





000
SAUS41 KLWX 232130
MTRRYT
SPECI KRYT 232120Z AUTO 00000KT 1 3/4SM RA BR BKN055 OVC070 13/13
A2995 RMK AO2 TSE02 P0011 $





000
SAUS41 KLWX 232105 COR
MTRRSP
METAR KRSP 232154Z AUTO 03011G24KT 5SM -RA FEW033 BKN060 OVC100
15/11 A2999 RMK AO2 RAB42 PRESRR SLP157 P0000 T01500106 $





000
SAUS41 KLWX 232055
MTRNAK
METAR KNAK 232054Z AUTO 15003KT 8SM SCT120 20/16 A2988 RMK AO2
SLP120 T02000156 56016





000
SAUS41 KLWX 232051 COR
MTRRYT
SPECI KRYT 232041Z AUTO 03016G31KT 8SM -TSRA FEW041 BKN075 BKN110
17/11 A2997 RMK AO2 PK WND 01031/2036 TSB35RAB32 PRESRR P0001 $





000
SAUS41 KLWX 231958 COR
MTRDMH
METAR KDMH 231954Z AUTO 19/13 A2988 RMK AO1 SLP119 T01890128





000
SAUS41 KLWX 231955
MTRNAK
METAR KNAK 231954Z AUTO 13008KT 7SM CLR 19/16 A2989 RMK AO2 SLP122
T01890161





000
SAUS41 KLWX 231855
MTRNAK
METAR KNAK 231854Z AUTO 13007KT 9SM CLR 19/15 A2990 RMK AO2 SLP128
T01940150





000
SAUS41 KLWX 231805 COR
MTRRSP
METAR KRSP 231854Z AUTO VRB03KT 10SM FEW032 SCT042 BKN080 19/11
A2998 RMK AO2 SLP152 T01940111 $





000
SAUS41 KLWX 231804 COR
MTRRYT
METAR KRYT 231753Z AUTO 26004KT 10SM BKN046 BKN060 22/11 A2994 RMK
AO2 SLP134 T02220111 10222 20139 58007 $





000
SAUS41 KLWX 231803
MTRRYT
METAR KRYT 231753Z AUTO 26004KT 10SM BKN046 BKN060 22/11 A2994 RMK
AO2 SLP134 T02220111 10222 20139 58007 $





000
SAUS41 KLWX 231758 COR
MTRDMH
METAR KDMH 231754Z AUTO 23/09 A2992 RMK AO1 SLP130 T02280094 10233
20161 56020





000
SAUS41 KLWX 231755
MTRNAK
METAR KNAK 231754Z AUTO 14008KT 8SM SCT041 18/16 A2993 RMK AO2
SLP135 60000 T01830156 10211 20150 58003





000
SAUS41 KLWX 231705 COR
MTRRSP
METAR KRSP 231754Z AUTO VRB03KT 10SM CLR 20/12 A2998 RMK AO2 SLP154
P0001 60002 T02000117 10200 20122 58004 $





000
SAUS41 KLWX 231704 COR
MTRRYT
METAR KRYT 231653Z AUTO VRB04KT 10SM OVC110 21/12 A2995 RMK AO2
SLP139 T02060122 $





000
SAUS41 KLWX 231703 COR
MTRRYT
METAR KRYT 231653Z AUTO VRB04KT 10SM OVC110 21/12 A2995 RMK AO2
SLP139 T02060122 $





000
SAUS41 KLWX 231658 COR
MTRDMH
METAR KDMH 231654Z AUTO 22/12 A2993 RMK AO1 SLP134 T02220117





000
SAUS41 KLWX 231503
MTRRYT
METAR KRYT 231453Z AUTO VRB03KT 10SM CLR 19/11 A2996 RMK AO2 SLP143
T01890106 50005 TSNO $





000
SAUS41 KLWX 231503 COR
MTRRYT
METAR KRYT 231453Z AUTO VRB03KT 10SM CLR 19/11 A2996 RMK AO2 SLP143
T01890106 50005 TSNO $





000
SAUS41 KLWX 231458 COR
MTRDMH
METAR KDMH 231454Z AUTO 21/13 A2997 RMK AO1 SLP150 T02060133 50010





000
SAUS41 KLWX 231455
MTRNAK
METAR KNAK 231454Z AUTO 33006KT 10SM FEW120 17/14 A2993 RMK AO2
SLP138 60000 T01720139 58001





000
SAUS41 KLWX 231403 COR
MTRRYT
METAR KRYT 231353Z AUTO VRB03KT 10SM CLR 18/11 A2997 RMK AO2 SLP144
T01780111 TSNO $





000
SAUS41 KLWX 231355
MTRNAK
METAR KNAK 231354Z AUTO 35005KT 9SM SCT095 17/14 A2995 RMK AO2
SLP144 T01670139





000
SAUS41 KLWX 231305 COR
MTRRSP
METAR KRSP 231354Z AUTO VRB04KT 10SM SCT110 14/11 A2999 RMK AO2
SLP162 T01440106 $





000
SAUS41 KLWX 231302
MTRRYT
METAR KRYT 231253Z AUTO 00000KT 10SM CLR 17/11 A2996 RMK AO2 SLP144
T01670111 $





000
SAUS41 KLWX 231258 COR
MTRDMH
METAR KDMH 231254Z AUTO 17/13 A2997 RMK AO1 SLP148 T01720128





000
SAUS41 KLWX 231255
MTRNAK
METAR KNAK 231254Z AUTO 34003KT 7SM FEW075 SCT090 SCT120 16/14 A2995
RMK AO2 RAE1157 SLP145 P0000 T01610139





000
SAUS41 KLWX 231205 COR
MTRRSP
METAR KRSP 231254Z AUTO 02004KT 10SM OVC090 14/09 A3001 RMK AO2
SLP166 T01390094 $





000
SAUS41 KLWX 231204 COR
MTRRYT
METAR KRYT 231153Z AUTO 00000KT 10SM BKN100 14/13 A2995 RMK AO2
SLP139 70033 T01390128 10139 20106 51013 $





000
SAUS41 KLWX 231203 COR
MTRRYT
METAR KRYT 231153Z AUTO 00000KT 10SM BKN100 14/13 A2995 RMK AO2
SLP139 70033 T01390128 10139 20106 51013 $





000
SAUS41 KLWX 231158 COR
MTRDMH
METAR KDMH 231154Z AUTO 16/12 A2994 RMK AO1 SLP140 70013 T01610122
10161 20139 51015





000
SAUS41 KLWX 231155
MTRNAK
METAR KNAK 231154Z AUTO 33005KT 5SM -RA BR BKN090 OVC110 15/13 A2994
RMK AO2 RAB47 SLP139 P0000 60000 70017 T01500133 10150 20139 53014





000
SAUS41 KLWX 231105 COR
MTRRSP
METAR KRSP 231154Z AUTO 03004KT 10SM SCT100 12/09 A2996 RMK AO2
SLP151 60002 7//// T01220094 10122 20111 50014 $





000
SAUS41 KLWX 231104 COR
MTRRYT
METAR KRYT 231053Z AUTO 00000KT 7SM BKN100 BKN110 12/11 A2994 RMK
AO2 SLP137 T01170106 $





000
SAUS41 KLWX 231103
MTRRYT
METAR KRYT 231053Z AUTO 00000KT 7SM BKN100 BKN110 12/11 A2994 RMK
AO2 SLP137 T01170106 $





000
SAUS41 KLWX 231055
MTRNAK
METAR KNAK 231054Z AUTO 31003KT 4SM BR BKN100 OVC120 14/13 A2992 RMK
AO2 SLP133 T01440133





000
SAUS41 KLWX 231005 COR
MTRRSP
METAR KRSP 231054Z AUTO 03005KT 10SM OVC085 12/09 A2996 RMK AO2
SLP151 P0001 T01220094 $





000
SAUS41 KLWX 230957 COR
MTRDMH
METAR KDMH 230954Z AUTO 14/13 A2992 RMK AO1 SLP130 T01440128





000
SAUS41 KLWX 230955
MTRNAK
METAR KNAK 230954Z AUTO 30003KT 3SM BR OVC080 14/13 A2990 RMK AO2
SLP127 T01390133





000
SAUS41 KLWX 230905 COR
MTRRSP
METAR KRSP 230954Z AUTO 05004KT 10SM OVC080 12/09 A2993 RMK AO2
SLP142 T01220094 $





000
SAUS41 KLWX 230904 COR
MTRRYT
METAR KRYT 230853Z AUTO 00000KT 7SM OVC085 11/11 A2991 RMK AO2
SLP128 T01110106 53001 $





000
SAUS41 KLWX 230804 COR
MTRRYT
METAR KRYT 230753Z AUTO 00000KT 7SM BKN080 OVC110 11/11 A2990 RMK
AO2 SLP125 T01110106 $





000
SAUS41 KLWX 230705 COR
MTRRSP
METAR KRSP 230754Z AUTO 04005KT 10SM FEW060 OVC100 12/09 A2992 RMK
AO2 SLP137 P0001 T01170094 $





000
SAUS41 KLWX 230704 COR
MTRRYT
METAR KRYT 230653Z AUTO 00000KT 6SM BR FEW075 SCT090 BKN120 11/10
A2990 RMK AO2 SLP126 T01110100 $





000
SAUS41 KLWX 230703
MTRRYT
METAR KRYT 230653Z AUTO 00000KT 6SM BR FEW075 SCT090 BKN120 11/10
A2990 RMK AO2 SLP126 T01110100 $





000
SAUS41 KLWX 230658 COR
MTRDMH
METAR KDMH 230654Z AUTO 15/13 A2990 RMK AO1 SLP123 T01500128





000
SAUS41 KLWX 230655
MTRNAK
METAR KNAK 230654Z AUTO 34003KT 10SM OVC075 14/13 A2989 RMK AO2
SLP123 T01440133





000
SAUS41 KLWX 230605 COR
MTRRSP
METAR KRSP 230654Z AUTO 03006KT 10SM OVC060 12/09 A2994 RMK AO2
SLP143 T01170094 $





000
SAUS41 KLWX 230604 COR
MTRRYT
METAR KRYT 230553Z AUTO 00000KT 9SM FEW060 BKN095 OVC120 11/11 A2990
RMK AO2 SLP126 60007 T01110106 10133 20111 58002 $





000
SAUS41 KLWX 230603
MTRRYT
METAR KRYT 230553Z AUTO 00000KT 9SM FEW060 BKN095 OVC120 11/11 A2990
RMK AO2 SLP126 60007 T01110106 10133 20111 58002 $





000
SAUS41 KLWX 230558 COR
MTRDMH
METAR KDMH 230554Z AUTO 14/13 A2992 RMK AO1 SLP130 60006 T01390128
10156 20139 53002





000
SAUS41 KLWX 230555
MTRNAK
METAR KNAK 230554Z AUTO 34004KT 10SM OVC060 14/13 A2989 RMK AO2
RAE06 SLP123 P0001 60003 T01440133 10144 20139 58002





000
SAUS41 KLWX 230504 COR
MTRRYT
METAR KRYT 230453Z AUTO 00000KT 6SM BR SCT085 OVC110 12/11 A2991 RMK
AO2 SLP128 T01170106 401390100 $





000
SAUS41 KLWX 230503 COR
MTRRYT
METAR KRYT 230453Z AUTO 00000KT 6SM BR SCT085 OVC110 12/11 A2991 RMK
AO2 SLP128 T01170106 401390100 $





000
SAUS41 KLWX 230458 COR
MTRDMH
METAR KDMH 230454Z AUTO 14/13 A2992 RMK AO1 SLP132 T01390128
401720117





000
SAUS41 KLWX 230456
MTRNAK
METAR KNAK 230454Z AUTO 35003KT 8SM -RA FEW037 FEW044 OVC055 14/13
A2990 RMK AO2 RAB0355E14B31 SLP127 P0001 T01440133 401500117





000
SAUS41 KLWX 230303
MTRRYT
METAR KRYT 230253Z AUTO 00000KT 5SM BR OVC055 12/11 A2991 RMK AO2
SLP130 60007 T01220111 51009 $





000
SAUS41 KLWX 230258 COR
MTRDMH
METAR KDMH 230254Z AUTO 15/13 A2991 RMK AO1 SLP127 60001 T01500128
50010





000
SAUS41 KLWX 230210
MTRNAK
SPECI KNAK 230209Z AUTO 35005KT 9SM FEW025 OVC033 14/13 A2989 RMK
AO2 T01390128





000
SAUS41 KLWX 230158 COR
MTRDMH
METAR KDMH 230154Z AUTO 15/13 A2991 RMK AO1 SLP129 T01500128





000
SAUS41 KLWX 230158 COR
MTRRYT
METAR KRYT 230153Z AUTO 00000KT 6SM BR BKN043 OVC055 12/11 A2990 RMK
AO2 RAB06E42 SLP127 P0001 T01170111 $





000
SAUS41 KLWX 230157 COR
MTRRYT
METAR KRYT 230153Z AUTO 00000KT 6SM BR BKN043 OVC055 12/11 A2990 RMK
AO2 RAB06E42 SLP127 P0001 T01170111 $





000
SAUS41 KLWX 230155
MTRNAK
METAR KNAK 230154Z AUTO 36006KT 9SM FEW021 BKN029 OVC038 14/13 A2989
RMK AO2 SLP122 P0001 T01390128





000
SAUS41 KLWX 230105 COR
MTRRSP
METAR KRSP 230154Z AUTO 02004KT 8SM SCT035 BKN055 OVC065 11/10 A2993
RMK AO2 RAE08B28E44 SLP144 P0001 T01110100 $





000
SAUS41 KLWX 230058 COR
MTRDMH
METAR KDMH 230054Z AUTO 14/12 A2989 RMK AO1 SLP121 P0001 T01440122





000
SAUS41 KLWX 230057 COR
MTRRYT
METAR KRYT 230053Z AUTO 00000KT 9SM FEW035 SCT044 OVC065 12/11 A2990
RMK AO2 RAB2357E37 SLP124 P0006 T01220111 $





000
SAUS41 KLWX 230056
MTRRYT
SPECI KRYT 230046Z AUTO 00000KT 9SM FEW002 OVC065 12/12 A2989 RMK
AO2 RAB2357E37 P0006 $





000
SAUS41 KLWX 230055
MTRNAK
METAR KNAK 230054Z AUTO 02003KT 9SM FEW037 OVC055 14/13 A2987 RMK
AO2 RAB29E40 SLP118 P0000 T01440128





000
SAUS41 KLWX 230048 COR
MTRRSP
SPECI KRSP 230137Z AUTO VRB05KT 6SM -RA BR SCT007 SCT041 OVC055
11/10 A2993 RMK AO2 RAE08B28 P0000 $





000
SAUS41 KLWX 230033 COR
MTRRSP
SPECI KRSP 230122Z AUTO 02006KT 7SM SCT006 BKN009 OVC070 11/10 A2992
RMK AO2 RAE08 P0000 $





000
SAUS41 KLWX 230005 COR
MTRRSP
METAR KRSP 230054Z AUTO 02007KT 5SM -RA BR BKN004 OVC009 11/10 A2989
RMK AO2 CIG 002V006 SLP129 P0000 T01110100 $





000
SAUS41 KLWX 222358 COR
MTRDMH
METAR KDMH 222354Z AUTO 15/13 A2988 RMK AO1 SLP117 60002 T01500128
10172 20150 51015





000
SAUS41 KLWX 222355
MTRNAK
METAR KNAK 222354Z AUTO 36005KT 6SM BR FEW009 OVC050 14/13 A2986 RMK
AO2 RAE35 SLP114 P0003 60005 T01440133 10150 20144 53007





000
SAUS41 KLWX 222338
MTRNAK
SPECI KNAK 222337Z AUTO 34005KT 4SM BR SCT009 SCT019 OVC050 14/14
A2986 RMK AO2 RAE35 P0003 T01440139





000
SAUS41 KLWX 222324
MTRNAK
SPECI KNAK 222323Z AUTO 33006KT 3SM -RA BR FEW010 SCT018 OVC050
14/13 A2986 RMK AO2 P0003 T01440133





000
SAUS41 KLWX 222307
MTRNAK
SPECI KNAK 222306Z AUTO 33005KT 2 1/2SM -RA BR OVC050 14/13 A2986
RMK AO2 P0002 T01440133





000
SAUS41 KLWX 222305 COR
MTRRSP
METAR KRSP 222354Z AUTO 36005KT 4SM -RA BR OVC002 11/10 A2987 RMK
AO2 SLP123 6//// T01110100 10117 20106 57000 $





000
SAUS41 KLWX 222304 COR
MTRRYT
METAR KRYT 222253Z AUTO 00000KT 5SM -RA BR SCT027 OVC060 13/12 A2987
RMK AO2 SLP117 P0008 T01280117 $





000
SAUS41 KLWX 222303
MTRRYT
METAR KRYT 222253Z AUTO 00000KT 5SM -RA BR SCT027 OVC060 13/12 A2987
RMK AO2 SLP117 P0008 T01280117 $





000
SAUS41 KLWX 222303 COR
MTRRYT
METAR KRYT 222253Z AUTO 00000KT 5SM -RA BR SCT027 OVC060 13/12 A2987
RMK AO2 SLP117 P0008 T01280117 $





000
SAUS41 KLWX 222258 COR
MTRDMH
METAR KDMH 222254Z AUTO 15/13 A2986 RMK AO1 SLP110 P0001 T01500128





000
SAUS41 KLWX 222214 COR
MTRRSP
SPECI KRSP 222303Z AUTO 35004KT 1 1/2SM RA BR OVC002 11/10 A2987 RMK
AO2 PNO $





000
SAUS41 KLWX 222142
MTRNAK
SPECI KNAK 222141Z AUTO 31007KT 7SM -RA SCT013 OVC045 14/13 A2984
RMK AO2 RAB14 P0001 T01440133





000
SAUS41 KLWX 221933 COR
MTRRSP
SPECI KRSP 222022Z AUTO 01003KT 3SM -RA BR OVC002 11/10 A2989 RMK
AO2 P0000 $





000
SAUS41 KLWX 221926 COR
MTRRYT
SPECI KRYT 221916Z AUTO 00000KT 10SM -RA SCT020 OVC048 13/11 A2988
RMK AO2 P0001 $





000
SAUS41 KLWX 221925
MTRRYT
SPECI KRYT 221916Z AUTO 00000KT 10SM -RA SCT020 OVC048 13/11 A2988
RMK AO2 P0001 $





000
SAUS41 KLWX 221858 COR
MTRDMH
METAR KDMH 221854Z AUTO 17/11 A2987 RMK AO1 SLP114 T01670111





000
SAUS41 KLWX 221855
MTRNAK
METAR KNAK 221854Z AUTO 31007KT 10SM OVC050 15/12 A2985 RMK AO2
SLP110 T01500117





000
SAUS41 KLWX 221849 COR
MTRRSP
SPECI KRSP 221938Z AUTO VRB06KT 2 1/2SM -RA BR OVC004 11/10 A2992
RMK AO2 CIG 002V008 P0001 $





000
SAUS41 KLWX 221804 COR
MTRRYT
METAR KRYT 221753Z AUTO 04006KT 10SM -RA OVC055 14/10 A2988 RMK AO2
RAE15B40 SLP119 P0000 60004 T01390100 10139 20100 58002 $





000
SAUS41 KLWX 221803
MTRRYT
METAR KRYT 221753Z AUTO 04006KT 10SM -RA OVC055 14/10 A2988 RMK AO2
RAE15B40 SLP119 P0000 60004 T01390100 10139 20100 58002 $





000
SAUS41 KLWX 221800 COR
MTRRSP
METAR KRSP 221854Z AUTO VRB03KT 10SM -RA BKN004 OVC013 11/10 A2994
RMK AO2 RAB11 CIG 003V008 SLP147 P0000 T01110100 $





000
SAUS41 KLWX 221759 COR
MTRDMH
METAR KDMH 221754Z AUTO 16/11 A2988 RMK AO1 SLP117 60005 T01610111
10161 20117 56007





000
SAUS41 KLWX 221758 COR
MTRNAK
METAR KNAK 221754Z AUTO 32007KT 10SM OVC044 14/12 A2986 RMK AO2
RAB38E50 SLP112 P0000 60009 T01440117 10144 20122 58003





000
SAUS41 KLWX 221658 COR
MTRDMH
METAR KDMH 221654Z AUTO 14/11 A2988 RMK AO1 SLP117 T01440106





000
SAUS41 KLWX 221658 COR
MTRNAK
METAR KNAK 221654Z AUTO 32007KT 10SM OVC037 13/12 A2986 RMK AO2
SLP112 T01330117





000
SAUS41 KLWX 221637 COR
MTRNAK
SPECI KNAK 221633Z AUTO 32006KT 7SM OVC032 13/12 A2986 RMK AO2
T01330117





000
SAUS41 KLWX 221625 COR
MTRNAK
SPECI KNAK 221622Z AUTO 34007KT 8SM BKN029 OVC034 13/12 A2986 RMK
AO2 T01330117





000
SAUS41 KLWX 221458 COR
MTRDMH
METAR KDMH 221454Z AUTO 13/11 A2990 RMK AO1 SLP124 P0001 60005
T01330106 51006





000
SAUS41 KLWX 221458 COR
MTRNAK
METAR KNAK 221454Z AUTO 36008KT 4SM BR OVC010 13/12 A2987 RMK AO2
RAE45 CIG 009V013 SLP115 P0002 60009 T01280117 50000





000
SAUS41 KLWX 221405 COR
MTRRSP
SPECI KRSP 221457Z AUTO VRB06KT 3SM -RA BR SCT002 OVC026 09/08 A2988
RMK AO2 P0000 $





000
SAUS41 KLWX 221405 COR
MTRRYT
METAR KRYT 221353Z AUTO 00000KT 10SM -RA OVC034 11/09 A2989 RMK AO2
SLP123 P0000 T01110094 $





000
SAUS41 KLWX 221404 COR
MTRRYT
METAR KRYT 221353Z AUTO 00000KT 10SM -RA OVC034 11/09 A2989 RMK AO2
SLP123 P0000 T01110094 $





000
SAUS41 KLWX 221403
MTRRYT
METAR KRYT 221353Z AUTO 00000KT 10SM -RA OVC034 11/09 A2989 RMK AO2
SLP123 P0000 T01110094 $





000
SAUS41 KLWX 221359 COR
MTRDMH
METAR KDMH 221354Z AUTO 12/11 A2989 RMK AO1 SLP121 P0003 T01220106





000
SAUS41 KLWX 221358 COR
MTRNAK
METAR KNAK 221354Z AUTO 35008KT 4SM -RA BR OVC012 13/12 A2987 RMK
AO2 RAE23B54 SLP117 P0001 T01280117





000
SAUS41 KLWX 221313 COR
MTRRYT
SPECI KRYT 221302Z AUTO VRB03KT 4SM -RA BR OVC024 11/09 A2989 RMK
AO2 P0000 $





000
SAUS41 KLWX 221313 COR
MTRNAK
SPECI KNAK 221309Z AUTO 35007KT 3SM -RA BR OVC012 12/11 A2987 RMK
AO2 P0001 T01220111





000
SAUS41 KLWX 221305 COR
MTRRSP
METAR KRSP 221354Z AUTO 05007KT 010V080 1 1/4SM -RA BR OVC002 08/08
A2988 RMK AO2 SLP126 P0000 T00830078 $





000
SAUS41 KLWX 221305 COR
MTRRYT
METAR KRYT 221253Z AUTO 00000KT 2 1/2SM -RA BR OVC022 11/09 A2989
RMK AO2 SLP122 P0003 T01060089 $





000
SAUS41 KLWX 221304 COR
MTRRYT
METAR KRYT 221253Z AUTO 00000KT 2 1/2SM -RA BR OVC022 11/09 A2989
RMK AO2 SLP122 P0003 T01060089 $





000
SAUS41 KLWX 221258 COR
MTRDMH
METAR KDMH 221254Z AUTO 12/10 A2989 RMK AO1 SLP121 P0001 T01220100





000
SAUS41 KLWX 221257 COR
MTRNAK
METAR KNAK 221254Z AUTO 34007KT 2 1/2SM -RA BR BKN010 OVC033 12/11
A2987 RMK AO2 RAB00 SLP118 P0006 T01220111





000
SAUS41 KLWX 221254 COR
MTRRYT
SPECI KRYT 221243Z AUTO 01003KT 2 1/2SM -RA BR OVC020 11/09 A2989
RMK AO2 P0002 $





000
SAUS41 KLWX 221253 COR
MTRRYT
SPECI KRYT 221243Z AUTO 01003KT 2 1/2SM -RA BR OVC020 11/09 A2989
RMK AO2 P0002 $





000
SAUS41 KLWX 221252
MTRRYT
SPECI KRYT 221243Z AUTO 01003KT 2 1/2SM -RA BR OVC020 11/09 A2989
RMK AO2 P0002 $





000
SAUS41 KLWX 221214 COR
MTRRSP
SPECI KRSP 221303Z AUTO VRB04KT 1 1/4SM -RA BR OVC002 08/08 A2987
RMK AO2 P0000 $





000
SAUS41 KLWX 221205 COR
MTRRSP
METAR KRSP 221254Z AUTO VRB05KT 1/2SM -RA FG VV002 08/08 A2987 RMK
AO2 SLP124 P0001 T00830078 $





000
SAUS41 KLWX 221204
MTRNAK
SPECI KNAK 221203Z AUTO 34009KT 2 1/2SM -RA BR BKN014 OVC023 12/12
A2987 RMK AO2 RAB00 P0000 T01220117





000
SAUS41 KLWX 221202
MTRRYT
METAR KRYT 221153Z AUTO 00000KT 3SM -RA BR OVC018 10/09 A2988 RMK
AO2 SLP121 P0005 60014 70053 T01000089 10106 20100 51011 $





000
SAUS41 KLWX 221158 COR
MTRNAK
METAR KNAK 221154Z AUTO 36008KT 3SM BR BKN014 OVC022 12/12 A2987 RMK
AO2 SLP115 60001 70103 T01220117 10133 20122 53014





000
SAUS41 KLWX 221158 COR
MTRDMH
METAR KDMH 221154Z AUTO 12/10 A2988 RMK AO1 SLP118 P0002 60007 70061
T01220100 10128 20117 53012





000
SAUS41 KLWX 221109 COR
MTRNAK
SPECI KNAK 221105Z AUTO 35008KT 3SM BR OVC009 12/12 A2985 RMK AO2
CIG 007V013 T01220117





000
SAUS41 KLWX 221105 COR
MTRRSP
METAR KRSP 221154Z AUTO VRB05KT 1/2SM -RA FG VV002 08/07 A2986 RMK
AO2 SLP120 P0000 60005 7//// T00830072 10089 20083 53000 $





000
SAUS41 KLWX 221104
MTRRYT
SPECI KRYT 221101Z AUTO VRB03KT 2SM -RA BR FEW009 OVC016 10/08 A2987
RMK AO2 P0001 $





000
SAUS41 KLWX 221103
MTRRYT
METAR KRYT 221053Z AUTO 00000KT 2 1/2SM -RA BR FEW009 OVC014 10/08
A2987 RMK AO2 SLP118 P0005 T01000083 $





000
SAUS41 KLWX 221030 COR
MTRRYT
SPECI KRYT 221025Z AUTO 04003KT 2SM -RA BR OVC012 10/08 A2987 RMK
AO2 P0002 $





000
SAUS41 KLWX 221015 COR
MTRRYT
SPECI KRYT 221004Z AUTO 04003KT 2 1/2SM -RA BR OVC010 10/09 A2986
RMK AO2 CIG 006V013 P0001 $





000
SAUS41 KLWX 221014
MTRRYT
SPECI KRYT 221004Z AUTO 04003KT 2 1/2SM -RA BR OVC010 10/09 A2986
RMK AO2 CIG 006V013 P0001 $





000
SAUS41 KLWX 220915 COR
MTRRYT
SPECI KRYT 220904Z AUTO 00000KT 2 1/2SM -RA BR OVC006 10/09 A2985
RMK AO2 CIG 003V010 P0000 $





000
SAUS41 KLWX 220914 COR
MTRRSP
SPECI KRSP 221006Z AUTO 00000KT 1/2SM -RA FG VV002 09/08 A2986 RMK
AO2 RAB03 P0000 $





000
SAUS41 KLWX 220914
MTRRYT
SPECI KRYT 220904Z AUTO 00000KT 2 1/2SM -RA BR OVC006 10/09 A2985
RMK AO2 CIG 003V010 P0000 $





000
SAUS41 KLWX 220906 COR
MTRRYT
METAR KRYT 220853Z AUTO 00000KT 4SM -RA BR OVC008 10/09 A2985 RMK
AO2 RAB44 CIG 004V012 SLP110 P0000 60002 T01000089 55002 $





000
SAUS41 KLWX 220848
MTRRYT
SPECI KRYT 220839Z AUTO 00000KT 5SM BR BKN010 OVC021 10/09 A2985 RMK
AO2 CIG 007V012 $





000
SAUS41 KLWX 220847 COR
MTRRSP
SPECI KRSP 220936Z AUTO 05004KT 4SM BR OVC002 08/08 A2986 RMK AO2
P0001 $





000
SAUS41 KLWX 220837 COR
MTRRSP
SPECI KRSP 220926Z AUTO 07005KT 2SM BR OVC002 08/08 A2986 RMK AO2
P0001 $





000
SAUS41 KLWX 220824 COR
MTRNAK
SPECI KNAK 220820Z AUTO 34007KT 3SM -RA BR BKN009 BKN013 OVC022
12/12 A2982 RMK AO2 P0001 T01220117





000
SAUS41 KLWX 220730 COR
MTRRYT
SPECI KRYT 220719Z AUTO 06005KT 10SM OVC014 10/08 A2985 RMK AO2
RAE0657 P0001 $





000
SAUS41 KLWX 220729
MTRRYT
SPECI KRYT 220719Z AUTO 06005KT 10SM OVC014 10/08 A2985 RMK AO2
RAE0657 P0001 $





000
SAUS41 KLWX 220726 COR
MTRNAK
SPECI KNAK 220722Z AUTO 35008KT 7SM BKN010 OVC015 13/12 A2983 RMK
AO2 CIG 008V014 T01280117





000
SAUS41 KLWX 220705 COR
MTRRSP
METAR KRSP 220754Z AUTO VRB03KT 3/4SM BR VV002 09/08 A2987 RMK AO2
SLP125 P0001 T00890083 $





000
SAUS41 KLWX 220703
MTRRYT
SPECI KRYT 220700Z AUTO VRB03KT 10SM FEW008 OVC016 11/09 A2985 RMK
AO2 RAE0657 P0001 $





000
SAUS41 KLWX 220658 COR
MTRNAK
METAR KNAK 220654Z AUTO 34010KT 5SM BR BKN009 OVC013 13/12 A2983 RMK
AO2 CIG 008V012 SLP103 T01280122





000
SAUS41 KLWX 220658 COR
MTRDMH
METAR KDMH 220654Z AUTO 12/11 A2985 RMK AO1 SLP109 T01220106





000
SAUS41 KLWX 220656
MTRRYT
METAR KRYT 220653Z AUTO VRB03KT 8SM -RA SCT010 OVC016 11/09 A2986
RMK AO2 RAB05 SLP112 P0001 T01060089 $





000
SAUS41 KLWX 220656 COR
MTRRYT
SPECI KRYT 220648Z AUTO 05003KT 7SM -RA BKN010 OVC016 11/09 A2986
RMK AO2 RAB05 CIG 006V013 P0001 $





000
SAUS41 KLWX 220655
MTRRYT
SPECI KRYT 220648Z AUTO 05003KT 7SM -RA BKN010 OVC016 11/09 A2986
RMK AO2 RAB05 CIG 006V013 P0001 $





000
SAUS41 KLWX 220605 COR
MTRRSP
METAR KRSP 220654Z AUTO 09006KT 1/4SM FG VV001 09/08 A2988 RMK AO2
RAE02 SLP128 P0001 T00890083 $





000
SAUS41 KLWX 220604 COR
MTRRYT
METAR KRYT 220553Z AUTO VRB03KT 3SM BR OVC006 11/09 A2987 RMK AO2
SLP117 P0001 60008 T01060094 10111 20106 58009 $





000
SAUS41 KLWX 220603
MTRRYT
METAR KRYT 220553Z AUTO VRB03KT 3SM BR OVC006 11/09 A2987 RMK AO2
SLP117 P0001 60008 T01060094 10111 20106 58009 $





000
SAUS41 KLWX 220603 COR
MTRRYT
METAR KRYT 220553Z AUTO VRB03KT 3SM BR OVC006 11/09 A2987 RMK AO2
SLP117 P0001 60008 T01060094 10111 20106 58009 $





000
SAUS41 KLWX 220558 COR
MTRNAK
METAR KNAK 220554Z AUTO 35007KT 6SM BR OVC009 13/12 A2984 RMK AO2
RAE05 SLP107 P0000 60005 T01330122 10150 20133 56005





000
SAUS41 KLWX 220558 COR
MTRDMH
METAR KDMH 220554Z AUTO 12/11 A2986 RMK AO1 SLP112 P0002 60015
T01220106 10133 20122 58007





000
SAUS41 KLWX 220532 COR
MTRNAK
SPECI KNAK 220528Z AUTO 33007KT 6SM BR BKN010 OVC015 13/13 A2985 RMK
AO2 RAE05 CIG 008V012 P0000 T01330128





000
SAUS41 KLWX 220519
MTRRYT
SPECI KRYT 220510Z AUTO 00000KT 3SM BR OVC006 11/09 A2988 RMK AO2
P0001 $





000
SAUS41 KLWX 220458 COR
MTRDMH
METAR KDMH 220454Z AUTO 13/11 A2987 RMK AO1 SLP116 P0003 T01280111
401830122





000
SAUS41 KLWX 220457 COR
MTRNAK
METAR KNAK 220454Z AUTO 36006KT 3SM -RA BR OVC010 13/13 A2985 RMK
AO2 SLP111 P0002 T01330128 401720128





000
SAUS41 KLWX 220422 COR
MTRRYT
SPECI KRYT 220411Z AUTO VRB04KT 2SM -RA BR SCT006 OVC011 11/09 A2989
RMK AO2 P0001 $





000
SAUS41 KLWX 220404 COR
MTRRYT
METAR KRYT 220353Z AUTO VRB04KT 2SM -RA BR BKN006 OVC011 11/09 A2990
RMK AO2 RAE0258B38 SLP125 P0002 T01060094 $





000
SAUS41 KLWX 220239
MTRRYT
SPECI KRYT 220236Z AUTO VRB06KT 2SM -RA BR OVC009 11/09 A2991 RMK
AO2 RAB20 CIG 005V013 P0001 $





000
SAUS41 KLWX 220236 COR
MTRNAK
SPECI KNAK 220232Z AUTO 35008KT 6SM BR BKN009 OVC014 13/13 A2987 RMK
AO2 T01330128





000
SAUS41 KLWX 220158 COR
MTRDMH
METAR KDMH 220154Z AUTO 13/11 A2989 RMK AO1 SLP121 P0002 T01280111





000
SAUS41 KLWX 220158 COR
MTRNAK
METAR KNAK 220154Z AUTO 36010KT 6SM BR OVC009 13/13 A2987 RMK AO2
RAE36 SLP117 P0002 T01330128





000
SAUS41 KLWX 220121 COR
MTRRYT
SPECI KRYT 220110Z AUTO 03006KT 3SM BR BKN005 OVC016 11/09 A2990 RMK
AO2 P0001 $





000
SAUS41 KLWX 220105 COR
MTRRSP
METAR KRSP 220154Z AUTO VRB04KT 1/4SM -RA FG VV001 09/09 A2991 RMK
AO2 SLP136 P0001 T00940089 $





000
SAUS41 KLWX 220104 COR
MTRRYT
SPECI KRYT 220059Z AUTO 00000KT 2 1/2SM BR BKN007 OVC016 11/09 A2990
RMK AO2 $





000
SAUS41 KLWX 220005 COR
MTRRSP
METAR KRSP 220054Z AUTO VRB05KT 1/4SM -RA FG VV001 09/08 A2991 RMK
AO2 SLP137 P0001 T00940083 $





000
SAUS41 KLWX 220004 COR
MTRRYT
METAR KRYT 212353Z AUTO 04004KT 5SM BR BKN007 OVC014 11/09 A2992 RMK
AO2 RAE02 CIG 005V010 SLP132 P0001 60013 T01110094 10111 20106 56009
$





000
SAUS41 KLWX 220003
MTRRYT
METAR KRYT 212353Z AUTO 04004KT 5SM BR BKN007 OVC014 11/09 A2992 RMK
AO2 RAE02 CIG 005V010 SLP132 P0001 60013 T01110094 10111 20106 56009
$





000
SAUS41 KLWX 212358 COR
MTRDMH
METAR KDMH 212354Z AUTO 13/12 A2990 RMK AO1 SLP123 P0003 60017
T01330117 10156 20133 56010





000
SAUS41 KLWX 212358 COR
MTRNAK
METAR KNAK 212354Z AUTO 36008KT 3SM BR BKN011 OVC032 14/14 A2988 RMK
AO2 RAE45 SLP119 P0001 60004 T01440139 10144 20139 56007





000
SAUS41 KLWX 212305 COR
MTRRSP
METAR KRSP 212354Z AUTO VRB03KT M1/4SM -RA FG VV001 09/09 A2994 RMK
AO2 SLP146 P0002 60010 T00940089 10100 20083 58010 $





000
SAUS41 KLWX 212257 COR
MTRNAK
METAR KNAK 212254Z AUTO 01008KT 2 1/2SM -RA BR BKN009 OVC014 14/14
A2988 RMK AO2 CIG 007V012 SLP121 P0001 T01440139





000
SAUS41 KLWX 212213 COR
MTRRYT
SPECI KRYT 212202Z AUTO 04003KT 3SM -RA BR OVC007 11/10 A2993 RMK
AO2 CIG 005V010 P0000 $





000
SAUS41 KLWX 212157 COR
MTRNAK
METAR KNAK 212154Z AUTO 02007KT 1 3/4SM -RA BR OVC009 14/14 A2989
RMK AO2 RAB42 CIG 007V014 SLP123 P0000 T01440139





    US Dept of Commerce
    National Oceanic and Atmospheric Administration
    National Weather Service
    1325 East West Highway
    Silver Spring, MD 20910
    Page Author: NWS Internet Services Team
Disclaimer
Information Quality
Credits
Glossary
Privacy Policy
Freedom of Information Act (FOIA)
About Us
Career Opportunities